createdAt,value
2019-02-17T00:00:57.761Z,4.80
2019-02-17T00:03:26.319Z,4.80
2019-02-17T00:05:54.908Z,4.70
2019-02-17T00:08:23.480Z,4.60
2019-02-17T00:10:52.081Z,4.50
2019-02-17T00:13:20.658Z,4.40
2019-02-17T00:15:49.268Z,4.40
2019-02-17T00:18:17.824Z,4.40
2019-02-17T00:20:46.420Z,4.30
2019-02-17T00:23:14.988Z,4.30
2019-02-17T00:25:43.575Z,4.20
2019-02-17T00:28:12.143Z,4.10
2019-02-17T00:30:40.729Z,4.10
2019-02-17T00:33:09.292Z,4.00
2019-02-17T00:35:37.885Z,4.00
2019-02-17T00:38:06.451Z,3.90
2019-02-17T00:40:35.507Z,3.90
2019-02-17T00:43:04.064Z,3.90
2019-02-17T00:45:32.650Z,3.90
2019-02-17T00:48:01.207Z,3.80
2019-02-17T00:50:29.800Z,3.80
2019-02-17T00:52:58.365Z,3.80
2019-02-17T00:55:26.953Z,3.70
2019-02-17T00:57:55.521Z,3.70
2019-02-17T01:00:24.112Z,3.70
2019-02-17T01:02:52.849Z,3.60
2019-02-17T01:05:21.438Z,3.60
2019-02-17T01:07:50.008Z,3.60
2019-02-17T01:10:18.597Z,3.60
2019-02-17T01:12:47.177Z,3.60
2019-02-17T01:15:15.761Z,3.50
2019-02-17T01:17:44.323Z,3.50
2019-02-17T01:20:12.904Z,3.50
2019-02-17T01:22:41.475Z,3.40
2019-02-17T01:25:10.604Z,3.40
2019-02-17T01:27:39.243Z,3.40
2019-02-17T01:30:10.902Z,3.40
2019-02-17T01:32:39.463Z,3.40
2019-02-17T01:35:08.416Z,3.40
2019-02-17T01:37:36.984Z,3.40
2019-02-17T01:40:10.103Z,3.30
2019-02-17T01:42:38.664Z,3.30
2019-02-17T01:45:09.192Z,3.30
2019-02-17T01:47:37.757Z,3.30
2019-02-17T01:50:08.787Z,3.30
2019-02-17T01:52:37.343Z,3.30
2019-02-17T01:55:07.873Z,3.20
2019-02-17T01:57:36.441Z,3.30
2019-02-17T02:00:10.932Z,3.20
2019-02-17T02:02:39.504Z,3.20
2019-02-17T02:05:08.262Z,3.20
2019-02-17T02:07:36.825Z,3.20
2019-02-17T02:10:08.045Z,3.20
2019-02-17T02:12:36.612Z,3.20
2019-02-17T02:15:08.412Z,3.20
2019-02-17T02:17:36.989Z,3.10
2019-02-17T02:20:11.266Z,3.10
2019-02-17T02:22:39.837Z,3.10
2019-02-17T02:25:08.668Z,3.10
2019-02-17T02:27:37.240Z,3.10
2019-02-17T02:30:08.941Z,3.20
2019-02-17T02:32:37.508Z,3.20
2019-02-17T02:35:06.641Z,3.20
2019-02-17T02:37:35.213Z,3.20
2019-02-17T02:40:03.872Z,3.20
2019-02-17T02:42:32.429Z,3.20
2019-02-17T02:45:01.030Z,3.20
2019-02-17T02:47:29.599Z,3.20
2019-02-17T02:49:58.194Z,3.20
2019-02-17T02:52:26.762Z,3.20
2019-02-17T02:54:55.338Z,3.10
2019-02-17T02:57:23.927Z,3.10
2019-02-17T02:59:52.862Z,3.10
2019-02-17T03:02:21.696Z,3.00
2019-02-17T03:04:50.267Z,3.00
2019-02-17T03:07:18.943Z,3.00
2019-02-17T03:09:47.500Z,3.00
2019-02-17T03:12:16.102Z,2.90
2019-02-17T03:14:44.679Z,2.90
2019-02-17T03:17:13.279Z,2.90
2019-02-17T03:19:41.849Z,2.90
2019-02-17T03:22:10.445Z,2.80
2019-02-17T03:24:39.014Z,2.80
2019-02-17T03:27:07.600Z,2.80
2019-02-17T03:29:36.171Z,2.80
2019-02-17T03:32:04.776Z,2.70
2019-02-17T03:34:33.349Z,2.70
2019-02-17T03:37:01.949Z,2.60
2019-02-17T03:39:30.513Z,2.60
2019-02-17T03:41:59.470Z,2.50
2019-02-17T03:44:28.032Z,2.50
2019-02-17T03:46:56.633Z,2.50
2019-02-17T03:49:25.209Z,2.50
2019-02-17T03:51:53.809Z,2.40
2019-02-17T03:54:22.381Z,2.40
2019-02-17T03:56:50.977Z,2.40
2019-02-17T03:59:19.552Z,2.40
2019-02-17T04:01:48.150Z,2.30
2019-02-17T04:04:16.723Z,2.30
2019-02-17T04:06:45.322Z,2.30
2019-02-17T04:09:13.894Z,2.20
2019-02-17T04:11:42.489Z,2.20
2019-02-17T04:14:11.058Z,2.10
2019-02-17T04:16:39.657Z,2.10
2019-02-17T04:19:08.228Z,2.10
2019-02-17T04:21:36.833Z,2.10
2019-02-17T04:24:05.410Z,2.00
2019-02-17T04:26:34.003Z,2.00
2019-02-17T04:29:02.573Z,2.00
2019-02-17T04:31:31.171Z,2.00
2019-02-17T04:33:59.736Z,1.90
2019-02-17T04:36:28.329Z,1.90
2019-02-17T04:38:56.910Z,1.90
2019-02-17T04:41:25.505Z,1.90
2019-02-17T04:43:54.073Z,1.90
2019-02-17T04:46:22.665Z,1.90
2019-02-17T04:48:51.239Z,1.90
2019-02-17T04:51:19.836Z,1.90
2019-02-17T04:53:48.437Z,1.90
2019-02-17T04:56:17.046Z,1.90
2019-02-17T04:58:45.610Z,1.90
2019-02-17T05:01:14.202Z,1.80
2019-02-17T05:03:42.786Z,1.80
2019-02-17T05:06:11.371Z,1.80
2019-02-17T05:08:39.944Z,1.80
2019-02-17T05:11:08.537Z,1.80
2019-02-17T05:13:37.120Z,1.80
2019-02-17T05:16:05.706Z,1.80
2019-02-17T05:18:34.264Z,1.70
2019-02-17T05:21:02.841Z,1.70
2019-02-17T05:23:31.433Z,1.70
2019-02-17T05:26:00.019Z,1.60
2019-02-17T05:28:28.611Z,1.60
2019-02-17T05:30:57.210Z,1.60
2019-02-17T05:33:25.773Z,1.50
2019-02-17T05:35:54.371Z,1.50
2019-02-17T05:38:22.943Z,1.50
2019-02-17T05:40:51.510Z,1.50
2019-02-17T05:43:20.104Z,1.40
2019-02-17T05:45:48.669Z,1.40
2019-02-17T05:48:17.260Z,1.40
2019-02-17T05:50:45.825Z,1.40
2019-02-17T05:53:14.430Z,1.40
2019-02-17T05:55:43.002Z,1.30
2019-02-17T05:58:11.599Z,1.30
2019-02-17T06:00:40.412Z,1.20
2019-02-17T06:03:09.004Z,1.20
2019-02-17T06:05:37.569Z,1.20
2019-02-17T06:08:06.174Z,1.20
2019-02-17T06:10:34.745Z,1.20
2019-02-17T06:13:03.337Z,1.20
2019-02-17T06:15:31.913Z,1.20
2019-02-17T06:18:00.509Z,1.20
2019-02-17T06:20:29.082Z,1.20
2019-02-17T06:22:57.673Z,1.10
2019-02-17T06:25:26.240Z,1.10
2019-02-17T06:27:54.841Z,1.10
2019-02-17T06:30:23.419Z,1.10
2019-02-17T06:32:52.014Z,1.10
2019-02-17T06:35:20.584Z,1.00
2019-02-17T06:37:49.178Z,1.00
2019-02-17T06:40:17.736Z,1.00
2019-02-17T06:42:46.340Z,1.00
2019-02-17T06:45:14.909Z,1.00
2019-02-17T06:47:43.506Z,1.00
2019-02-17T06:50:12.078Z,1.00
2019-02-17T06:52:40.666Z,1.00
2019-02-17T06:55:10.891Z,1.00
2019-02-17T06:57:41.124Z,1.00
2019-02-17T07:00:18.236Z,1.00
2019-02-17T07:02:46.838Z,1.00
2019-02-17T07:05:25.860Z,1.00
2019-02-17T07:07:54.449Z,0.90
2019-02-17T07:10:23.016Z,1.00
2019-02-17T07:12:51.620Z,1.00
2019-02-17T07:15:20.182Z,1.00
2019-02-17T07:17:48.778Z,1.00
2019-02-17T07:20:17.357Z,1.00
2019-02-17T07:22:45.940Z,1.00
2019-02-17T07:25:14.516Z,1.10
2019-02-17T07:27:47.318Z,1.10
2019-02-17T07:30:15.798Z,1.10
2019-02-17T07:32:44.364Z,1.10
2019-02-17T07:35:13.011Z,1.10
2019-02-17T07:37:41.610Z,1.20
2019-02-17T07:40:10.317Z,1.20
2019-02-17T07:42:38.914Z,1.20
2019-02-17T07:45:09.922Z,1.30
2019-02-17T07:47:38.519Z,1.30
2019-02-17T07:50:11.495Z,1.40
2019-02-17T07:52:40.081Z,1.40
2019-02-17T07:55:10.501Z,1.40
2019-02-17T07:57:39.093Z,1.40
2019-02-17T08:00:10.477Z,1.50
2019-02-17T08:02:39.146Z,1.50
2019-02-17T08:05:08.660Z,1.60
2019-02-17T08:07:37.311Z,1.60
2019-02-17T08:10:10.055Z,1.60
2019-02-17T08:12:38.695Z,1.60
2019-02-17T08:15:09.946Z,1.70
2019-02-17T08:17:38.582Z,1.70
2019-02-17T08:20:09.874Z,1.80
2019-02-17T08:22:38.469Z,1.80
2019-02-17T08:25:08.584Z,1.90
2019-02-17T08:27:37.185Z,1.90
2019-02-17T08:30:08.837Z,1.90
2019-02-17T08:32:37.432Z,2.00
2019-02-17T08:35:06.544Z,2.10
2019-02-17T08:37:35.132Z,2.10
2019-02-17T08:40:04.968Z,2.20
2019-02-17T08:42:33.544Z,2.30
2019-02-17T08:45:02.155Z,2.30
2019-02-17T08:47:30.716Z,2.40
2019-02-17T08:49:59.320Z,2.50
2019-02-17T08:52:27.893Z,2.50
2019-02-17T08:54:56.503Z,2.60
2019-02-17T08:57:25.081Z,2.70
2019-02-17T08:59:53.683Z,2.80
2019-02-17T09:02:22.263Z,2.90
2019-02-17T09:04:50.865Z,3.00
2019-02-17T09:07:19.439Z,3.10
2019-02-17T09:09:48.039Z,3.20
2019-02-17T09:12:16.618Z,3.30
2019-02-17T09:14:45.216Z,3.40
2019-02-17T09:17:13.793Z,3.60
2019-02-17T09:19:42.398Z,3.70
2019-02-17T09:22:10.986Z,3.90
2019-02-17T09:24:39.577Z,4.10
2019-02-17T09:27:08.153Z,4.20
2019-02-17T09:29:36.755Z,4.30
2019-02-17T09:32:05.349Z,4.50
2019-02-17T09:34:35.580Z,4.60
2019-02-17T09:37:04.164Z,4.80
2019-02-17T09:39:32.763Z,5.00
2019-02-17T09:42:01.330Z,5.20
2019-02-17T09:44:29.929Z,5.30
2019-02-17T09:46:58.500Z,5.40
2019-02-17T09:49:27.098Z,5.60
2019-02-17T09:51:55.678Z,5.80
2019-02-17T09:54:24.283Z,5.90
2019-02-17T09:56:54.507Z,6.10
2019-02-17T09:59:23.107Z,6.20
2019-02-17T10:01:52.462Z,6.40
2019-02-17T10:04:21.057Z,6.50
2019-02-17T10:06:49.624Z,6.70
2019-02-17T10:09:18.227Z,6.80
2019-02-17T10:11:46.806Z,6.90
2019-02-17T10:14:15.410Z,7.10
2019-02-17T10:16:43.990Z,7.20
2019-02-17T10:19:12.585Z,7.40
2019-02-17T10:21:41.157Z,7.60
2019-02-17T10:24:09.763Z,7.70
2019-02-17T10:26:38.331Z,7.90
2019-02-17T10:29:06.957Z,8.00
2019-02-17T10:31:35.492Z,8.10
2019-02-17T10:34:04.093Z,8.20
2019-02-17T10:36:32.673Z,8.40
2019-02-17T10:39:01.278Z,8.50
2019-02-17T10:41:29.858Z,8.50
2019-02-17T10:43:58.462Z,8.60
2019-02-17T10:46:27.043Z,8.70
2019-02-17T10:48:55.646Z,8.80
2019-02-17T10:51:26.373Z,8.80
2019-02-17T10:53:54.469Z,8.90
2019-02-17T10:56:23.045Z,9.00
2019-02-17T10:58:51.645Z,9.10
2019-02-17T11:01:20.230Z,9.20
2019-02-17T11:04:06.490Z,9.30
2019-02-17T11:06:35.070Z,9.40
2019-02-17T11:09:07.985Z,9.50
2019-02-17T11:11:36.565Z,9.60
2019-02-17T11:14:05.172Z,9.80
2019-02-17T11:16:33.752Z,9.90
2019-02-17T11:19:02.363Z,10.00
2019-02-17T11:21:30.947Z,10.10
2019-02-17T11:23:59.550Z,10.20
2019-02-17T11:26:28.125Z,10.30
2019-02-17T11:28:56.700Z,10.50
2019-02-17T11:31:25.314Z,10.60
2019-02-17T11:33:53.898Z,10.70
2019-02-17T11:36:22.503Z,10.80
2019-02-17T11:38:51.072Z,10.90
2019-02-17T11:41:19.678Z,11.10
2019-02-17T11:43:48.265Z,11.30
2019-02-17T11:46:16.865Z,11.40
2019-02-17T11:48:45.453Z,11.50
2019-02-17T11:51:14.058Z,11.70
2019-02-17T11:53:42.650Z,11.80
2019-02-17T11:56:11.255Z,11.90
2019-02-17T11:58:39.839Z,12.00
2019-02-17T12:01:08.445Z,12.00
2019-02-17T12:03:37.021Z,12.20
2019-02-17T12:06:05.629Z,12.30
2019-02-17T12:08:34.204Z,12.40
2019-02-17T12:11:02.813Z,12.40
2019-02-17T12:13:31.398Z,12.50
2019-02-17T12:16:00.005Z,12.70
2019-02-17T12:18:28.577Z,12.80
2019-02-17T12:20:58.813Z,13.00
2019-02-17T12:23:29.033Z,13.10
2019-02-17T12:25:59.277Z,13.30
2019-02-17T12:28:29.577Z,13.40
2019-02-17T12:30:58.106Z,13.60
2019-02-17T12:33:26.677Z,13.70
2019-02-17T12:35:55.276Z,13.80
2019-02-17T12:38:23.848Z,13.90
2019-02-17T12:40:52.459Z,14.00
2019-02-17T12:43:21.043Z,14.10
2019-02-17T12:45:49.652Z,14.10
2019-02-17T12:48:18.224Z,14.20
2019-02-17T12:50:47.098Z,14.30
2019-02-17T12:53:15.707Z,14.40
2019-02-17T12:55:44.304Z,14.50
2019-02-17T12:58:12.891Z,14.60
2019-02-17T13:00:41.488Z,14.70
2019-02-17T13:03:10.073Z,14.80
2019-02-17T13:05:38.668Z,14.90
2019-02-17T13:08:07.253Z,15.00
2019-02-17T13:10:35.858Z,15.00
2019-02-17T13:13:04.846Z,15.20
2019-02-17T13:15:33.554Z,15.20
2019-02-17T13:18:02.137Z,15.30
2019-02-17T13:20:30.737Z,15.40
2019-02-17T13:22:59.316Z,15.50
2019-02-17T13:25:27.925Z,15.60
2019-02-17T13:27:56.514Z,15.60
2019-02-17T13:30:26.860Z,15.60
2019-02-17T13:32:55.441Z,15.70
2019-02-17T13:35:24.042Z,15.70
2019-02-17T13:37:52.626Z,15.70
2019-02-17T13:40:21.238Z,15.70
2019-02-17T13:42:49.821Z,15.70
2019-02-17T13:45:18.434Z,15.70
2019-02-17T13:47:47.062Z,15.80
2019-02-17T13:50:18.529Z,15.80
2019-02-17T13:52:47.100Z,15.80
2019-02-17T13:55:15.711Z,15.80
2019-02-17T13:57:44.300Z,15.90
2019-02-17T14:00:17.362Z,15.90
2019-02-17T14:02:45.943Z,15.90
2019-02-17T14:05:14.612Z,15.90
2019-02-17T14:07:43.308Z,15.90
2019-02-17T14:10:15.326Z,15.90
2019-02-17T14:12:44.012Z,15.90
2019-02-17T14:15:22.841Z,15.80
2019-02-17T14:17:51.435Z,15.80
2019-02-17T14:20:20.009Z,15.70
2019-02-17T14:22:48.613Z,15.70
2019-02-17T14:25:17.209Z,15.60
2019-02-17T14:27:45.817Z,15.60
2019-02-17T14:30:15.654Z,15.60
2019-02-17T14:32:45.256Z,15.50
2019-02-17T14:35:14.001Z,15.50
2019-02-17T14:37:42.603Z,15.50
2019-02-17T14:40:13.389Z,15.50
2019-02-17T14:42:42.009Z,15.40
2019-02-17T14:45:12.799Z,15.40
2019-02-17T14:47:41.429Z,15.40
2019-02-17T14:50:11.038Z,15.40
2019-02-17T14:52:39.666Z,15.30
2019-02-17T14:58:30.170Z,15.30
2019-02-17T15:00:58.771Z,15.20
2019-02-17T15:03:27.400Z,15.20
2019-02-17T15:05:56.083Z,15.10
2019-02-17T15:08:24.666Z,15.00
2019-02-17T15:10:53.279Z,15.00
2019-02-17T15:13:24.645Z,14.90
2019-02-17T15:15:52.113Z,14.80
2019-02-17T15:18:20.694Z,14.70
2019-02-17T15:20:49.299Z,14.60
2019-02-17T15:23:17.886Z,14.50
2019-02-17T15:25:46.466Z,14.50
2019-02-17T15:28:15.069Z,14.40
2019-02-17T15:30:43.662Z,14.30
2019-02-17T15:33:12.266Z,14.20
2019-02-17T15:35:40.842Z,14.20
2019-02-17T15:38:09.453Z,14.10
2019-02-17T15:40:38.029Z,14.00
2019-02-17T15:43:06.631Z,13.90
2019-02-17T15:45:35.213Z,13.80
2019-02-17T15:48:03.821Z,13.70
2019-02-17T15:50:32.423Z,13.60
2019-02-17T15:53:01.034Z,13.50
2019-02-17T15:55:29.621Z,13.40
2019-02-17T15:57:58.227Z,13.30
2019-02-17T16:00:26.813Z,13.20
2019-02-17T16:02:55.418Z,13.10
2019-02-17T16:05:24.002Z,13.00
2019-02-17T16:07:52.605Z,13.00
2019-02-17T16:10:21.190Z,12.90
2019-02-17T16:12:49.784Z,12.90
2019-02-17T16:15:26.077Z,12.80
2019-02-17T16:17:54.681Z,12.70
2019-02-17T16:20:23.257Z,12.70
2019-02-17T16:22:51.865Z,12.60
2019-02-17T16:25:20.454Z,12.50
2019-02-17T16:27:49.048Z,12.40
2019-02-17T16:30:20.541Z,12.30
2019-02-17T16:32:49.133Z,12.30
2019-02-17T16:35:17.782Z,12.20
2019-02-17T16:37:46.402Z,12.10
2019-02-17T16:40:16.226Z,12.00
2019-02-17T16:42:44.822Z,12.00
2019-02-17T16:45:14.442Z,11.90
2019-02-17T16:47:43.808Z,11.80
2019-02-17T16:50:23.520Z,11.70
2019-02-17T16:52:52.125Z,11.70
2019-02-17T16:55:20.696Z,11.60
2019-02-17T16:57:49.298Z,11.40
2019-02-17T17:00:27.731Z,11.30
2019-02-17T17:02:56.972Z,11.30
2019-02-17T17:05:26.064Z,11.10
2019-02-17T17:07:54.677Z,11.00
2019-02-17T17:13:17.084Z,10.80
2019-02-17T17:15:45.658Z,10.70
2019-02-17T17:18:14.275Z,10.60
2019-02-17T17:20:42.851Z,10.50
2019-02-17T17:23:11.523Z,10.40
2019-02-17T17:25:40.160Z,10.40
2019-02-17T17:28:08.827Z,10.40
2019-02-17T17:30:37.393Z,10.30
2019-02-17T17:33:05.993Z,10.30
2019-02-17T17:35:34.579Z,10.20
2019-02-17T17:38:03.181Z,10.10
2019-02-17T17:40:31.762Z,10.10
2019-02-17T17:43:00.358Z,10.10
2019-02-17T17:45:30.773Z,10.00
2019-02-17T17:47:59.362Z,9.90
2019-02-17T17:50:27.942Z,9.80
2019-02-17T17:52:56.520Z,9.80
2019-02-17T17:55:25.122Z,9.70
2019-02-17T17:57:53.709Z,9.70
2019-02-17T18:00:23.959Z,9.70
2019-02-17T18:02:52.529Z,9.60
2019-02-17T18:05:21.129Z,9.60
2019-02-17T18:07:49.701Z,9.60
2019-02-17T18:10:18.305Z,9.60
2019-02-17T18:12:46.878Z,9.50
2019-02-17T18:15:17.418Z,9.50
2019-02-17T18:17:53.963Z,9.50
2019-02-17T18:20:16.313Z,9.40
2019-02-17T18:22:44.897Z,9.40
2019-02-17T18:25:13.937Z,9.30
2019-02-17T18:27:42.518Z,9.30
2019-02-17T18:30:16.676Z,9.30
2019-02-17T18:32:45.517Z,9.20
2019-02-17T18:35:19.599Z,9.20
2019-02-17T18:37:44.413Z,9.20
2019-02-17T18:40:18.901Z,9.10
2019-02-17T18:42:47.467Z,9.10
2019-02-17T18:45:16.606Z,9.10
2019-02-17T18:47:45.177Z,9.00
2019-02-17T18:50:15.022Z,9.00
2019-02-17T18:52:43.669Z,9.00
2019-02-17T18:55:13.418Z,8.90
2019-02-17T18:57:49.347Z,8.90
2019-02-17T19:00:21.278Z,8.90
2019-02-17T19:02:49.844Z,8.90
2019-02-17T19:05:20.133Z,8.90
2019-02-17T19:07:48.688Z,8.80
2019-02-17T19:10:17.280Z,8.80
2019-02-17T19:12:45.860Z,8.80
2019-02-17T19:15:16.973Z,8.80
2019-02-17T19:17:45.544Z,8.80
2019-02-17T19:20:17.161Z,8.80
2019-02-17T19:22:45.730Z,8.80
2019-02-17T19:25:14.417Z,8.80
2019-02-17T19:27:42.990Z,8.80
2019-02-17T19:30:14.235Z,8.70
2019-02-17T19:32:42.813Z,8.70
2019-02-17T19:35:13.450Z,8.70
2019-02-17T19:37:42.099Z,8.60
2019-02-17T19:40:16.905Z,8.60
2019-02-17T19:42:45.477Z,8.60
2019-02-17T19:45:16.293Z,8.60
2019-02-17T19:47:44.927Z,8.50
2019-02-17T19:50:14.967Z,8.50
2019-02-17T19:52:43.604Z,8.50
2019-02-17T19:55:14.215Z,8.40
2019-02-17T19:57:42.866Z,8.40
2019-02-17T20:00:19.652Z,8.40
2019-02-17T20:02:58.483Z,8.40
2019-02-17T20:05:28.724Z,8.30
2019-02-17T20:07:57.308Z,8.30
2019-02-17T20:10:25.905Z,8.20
2019-02-17T20:12:54.480Z,8.20
2019-02-17T20:15:24.717Z,8.10
2019-02-17T20:17:57.810Z,8.10
2019-02-17T20:20:26.413Z,8.10
2019-02-17T20:22:54.990Z,8.00
2019-02-17T20:25:23.585Z,8.00
2019-02-17T20:27:52.161Z,7.90
2019-02-17T20:30:20.766Z,7.90
2019-02-17T20:32:49.346Z,7.80
2019-02-17T20:35:17.949Z,7.80
2019-02-17T20:37:46.517Z,7.70
2019-02-17T20:40:16.968Z,7.70
2019-02-17T20:42:45.536Z,7.60
2019-02-17T20:45:14.131Z,7.50
2019-02-17T20:47:42.778Z,7.50
2019-02-17T20:50:14.287Z,7.40
2019-02-17T20:52:42.864Z,7.40
2019-02-17T20:55:12.405Z,7.30
2019-02-17T20:57:41.013Z,7.30
2019-02-17T21:00:14.797Z,7.30
2019-02-17T21:02:43.379Z,7.20
2019-02-17T21:05:12.109Z,7.20
2019-02-17T21:07:40.691Z,7.10
2019-02-17T21:10:11.898Z,7.10
2019-02-17T21:12:40.472Z,7.00
2019-02-17T21:15:16.561Z,7.00
2019-02-17T21:17:45.146Z,6.90
2019-02-17T21:20:14.742Z,6.80
2019-02-17T21:22:43.318Z,6.80
2019-02-17T21:25:13.260Z,6.70
2019-02-17T21:27:41.975Z,6.60
2019-02-17T21:30:15.789Z,6.60
2019-02-17T21:32:44.372Z,6.50
2019-02-17T21:35:14.604Z,6.50
2019-02-17T21:37:43.247Z,6.40
2019-02-17T21:40:12.789Z,6.40
2019-02-17T21:42:41.357Z,6.30
2019-02-17T21:45:11.598Z,6.20
2019-02-17T21:47:40.169Z,6.20
2019-02-17T21:50:13.562Z,6.20
2019-02-17T21:52:42.397Z,6.20
2019-02-17T21:55:12.473Z,6.10
2019-02-17T21:57:41.070Z,6.10
2019-02-17T22:00:16.812Z,6.00
2019-02-17T22:02:45.383Z,6.00
2019-02-17T22:05:13.968Z,5.90
2019-02-17T22:07:42.545Z,5.80
2019-02-17T22:10:18.694Z,5.80
2019-02-17T22:12:47.274Z,5.70
2019-02-17T22:15:20.541Z,5.70
2019-02-17T22:17:49.107Z,5.70
2019-02-17T22:20:17.704Z,5.60
2019-02-17T22:22:46.278Z,5.60
2019-02-17T22:25:15.822Z,5.50
2019-02-17T22:27:44.469Z,5.50
2019-02-17T22:30:15.161Z,5.40
2019-02-17T22:32:43.814Z,5.40
2019-02-17T22:35:12.478Z,5.30
2019-02-17T22:37:41.058Z,5.30
2019-02-17T22:40:13.997Z,5.20
2019-02-17T22:42:42.567Z,5.20
2019-02-17T22:45:12.181Z,5.20
2019-02-17T22:47:40.914Z,5.20
2019-02-17T22:50:13.902Z,5.10
2019-02-17T22:52:42.497Z,5.10
2019-02-17T22:55:12.112Z,5.10
2019-02-17T22:57:40.718Z,5.00
2019-02-17T23:00:15.169Z,5.00
2019-02-17T23:02:43.764Z,4.90
2019-02-17T23:05:12.333Z,4.90
2019-02-17T23:07:40.935Z,4.80
2019-02-17T23:10:10.445Z,4.80
2019-02-17T23:12:39.032Z,4.70
2019-02-17T23:15:08.349Z,4.70
2019-02-17T23:17:36.942Z,4.70
2019-02-17T23:20:07.158Z,4.60
2019-02-17T23:22:35.758Z,4.60
2019-02-17T23:25:06.970Z,4.50
2019-02-17T23:27:35.573Z,4.50
2019-02-17T23:30:05.986Z,4.50
2019-02-17T23:32:34.577Z,4.40
2019-02-17T23:35:03.155Z,4.40
2019-02-17T23:37:31.772Z,4.40
2019-02-17T23:40:00.337Z,4.40
2019-02-17T23:42:28.943Z,4.30
2019-02-17T23:44:57.523Z,4.30
2019-02-17T23:47:26.108Z,4.30
2019-02-17T23:49:54.683Z,4.20
2019-02-17T23:52:23.285Z,4.20
2019-02-17T23:54:51.859Z,4.20
2019-02-17T23:57:20.448Z,4.10
2019-02-17T23:59:49.033Z,4.10
